sensor_id;sensor_type;location;lat;lon;timestamp;pressure;altitude;pressure_sealevel;temperature;humidity
25855;BME280;13680;49.936;11.344;2023-05-25T00:00:12;97297.66;;;10.75;58.62
25855;BME280;13680;49.936;11.344;2023-05-25T00:02:40;97303.38;;;10.68;58.63
25855;BME280;13680;49.936;11.344;2023-05-25T00:05:07;97301.72;;;10.72;58.17
25855;BME280;13680;49.936;11.344;2023-05-25T00:07:33;97304.69;;;10.71;58.31
25855;BME280;13680;49.936;11.344;2023-05-25T00:09:59;97304.69;;;10.71;58.34
25855;BME280;13680;49.936;11.344;2023-05-25T00:12:24;97304.41;;;10.48;58.70
25855;BME280;13680;49.936;11.344;2023-05-25T00:14:50;97302.34;;;10.40;59.58
25855;BME280;13680;49.936;11.344;2023-05-25T00:17:15;97302.78;;;10.47;59.58
25855;BME280;13680;49.936;11.344;2023-05-25T00:19:43;97296.44;;;10.38;60.11
25855;BME280;13680;49.936;11.344;2023-05-25T00:22:12;97293.09;;;10.46;59.48
25855;BME280;13680;49.936;11.344;2023-05-25T00:24:38;97292.97;;;10.37;59.68
25855;BME280;13680;49.936;11.344;2023-05-25T00:27:04;97289.81;;;10.25;60.02
25855;BME280;13680;49.936;11.344;2023-05-25T00:29:31;97288.38;;;10.38;59.27
25855;BME280;13680;49.936;11.344;2023-05-25T00:31:56;97288.91;;;10.35;59.69
25855;BME280;13680;49.936;11.344;2023-05-25T00:34:21;97285.16;;;10.36;59.37
25855;BME280;13680;49.936;11.344;2023-05-25T00:36:47;97279.78;;;10.30;59.59
25855;BME280;13680;49.936;11.344;2023-05-25T00:39:17;97285.75;;;10.27;60.17
25855;BME280;13680;49.936;11.344;2023-05-25T00:41:43;97288.78;;;10.21;59.93
25855;BME280;13680;49.936;11.344;2023-05-25T00:44:10;97279.91;;;10.20;59.89
25855;BME280;13680;49.936;11.344;2023-05-25T00:46:36;97275.59;;;10.19;60.19
25855;BME280;13680;49.936;11.344;2023-05-25T00:49:03;97280.84;;;10.05;60.81
25855;BME280;13680;49.936;11.344;2023-05-25T00:51:29;97281.19;;;9.98;60.17
25855;BME280;13680;49.936;11.344;2023-05-25T00:53:57;97283.44;;;9.86;60.68
25855;BME280;13680;49.936;11.344;2023-05-25T00:56:25;97293.91;;;9.88;61.42
25855;BME280;13680;49.936;11.344;2023-05-25T00:58:53;97287.47;;;9.89;61.08
25855;BME280;13680;49.936;11.344;2023-05-25T01:01:22;97285.59;;;9.84;61.03
25855;BME280;13680;49.936;11.344;2023-05-25T01:03:50;97287.47;;;9.83;61.12
25855;BME280;13680;49.936;11.344;2023-05-25T01:06:20;97287.22;;;9.85;60.84
25855;BME280;13680;49.936;11.344;2023-05-25T01:08:49;97286.19;;;9.76;61.83
25855;BME280;13680;49.936;11.344;2023-05-25T01:11:20;97277.09;;;9.72;61.48
25855;BME280;13680;49.936;11.344;2023-05-25T01:13:51;97276.03;;;9.73;61.31
25855;BME280;13680;49.936;11.344;2023-05-25T01:16:17;97272.06;;;9.65;62.00
25855;BME280;13680;49.936;11.344;2023-05-25T01:18:43;97272.81;;;9.71;61.94
25855;BME280;13680;49.936;11.344;2023-05-25T01:21:13;97274.44;;;9.66;61.78
25855;BME280;13680;49.936;11.344;2023-05-25T01:23:46;97274.44;;;9.66;62.04
25855;BME280;13680;49.936;11.344;2023-05-25T01:26:15;97274.41;;;9.72;61.76
25855;BME280;13680;49.936;11.344;2023-05-25T01:28:46;97267.56;;;9.55;61.98
25855;BME280;13680;49.936;11.344;2023-05-25T01:31:14;97261.09;;;9.56;62.35
25855;BME280;13680;49.936;11.344;2023-05-25T01:33:41;97258.19;;;9.53;62.66
25855;BME280;13680;49.936;11.344;2023-05-25T01:36:08;97272.91;;;9.55;62.66
25855;BME280;13680;49.936;11.344;2023-05-25T01:38:34;97273.41;;;9.62;62.30
25855;BME280;13680;49.936;11.344;2023-05-25T01:41:01;97271.81;;;9.61;62.58
25855;BME280;13680;49.936;11.344;2023-05-25T01:43:26;97272.13;;;9.55;62.33
25855;BME280;13680;49.936;11.344;2023-05-25T01:45:57;97271.97;;;9.41;63.06
25855;BME280;13680;49.936;11.344;2023-05-25T01:48:42;97270.28;;;9.50;63.07
25855;BME280;13680;49.936;11.344;2023-05-25T01:56:34;97271.56;;;9.58;62.61
25855;BME280;13680;49.936;11.344;2023-05-25T01:59:01;97273.75;;;9.56;63.21
25855;BME280;13680;49.936;11.344;2023-05-25T02:01:28;97268.13;;;9.52;62.87
25855;BME280;13680;49.936;11.344;2023-05-25T02:03:55;97273.00;;;9.45;63.04
25855;BME280;13680;49.936;11.344;2023-05-25T02:06:20;97264.97;;;9.40;63.29
25855;BME280;13680;49.936;11.344;2023-05-25T02:08:46;97264.72;;;9.36;63.76
25855;BME280;13680;49.936;11.344;2023-05-25T02:11:12;97270.34;;;9.40;63.75
25855;BME280;13680;49.936;11.344;2023-05-25T02:13:38;97288.63;;;9.38;63.43
25855;BME280;13680;49.936;11.344;2023-05-25T02:16:04;97274.63;;;9.41;63.27
25855;BME280;13680;49.936;11.344;2023-05-25T02:18:30;97274.63;;;9.41;63.54
25855;BME280;13680;49.936;11.344;2023-05-25T02:20:56;97275.72;;;9.40;63.54
25855;BME280;13680;49.936;11.344;2023-05-25T02:23:21;97286.47;;;9.34;64.40
25855;BME280;13680;49.936;11.344;2023-05-25T02:25:46;97275.41;;;9.46;63.23
25855;BME280;13680;49.936;11.344;2023-05-25T02:28:13;97274.31;;;9.47;63.38
25855;BME280;13680;49.936;11.344;2023-05-25T02:30:38;97273.75;;;9.56;62.60
25855;BME280;13680;49.936;11.344;2023-05-25T02:33:04;97272.13;;;9.55;62.87
25855;BME280;13680;49.936;11.344;2023-05-25T02:35:29;97277.25;;;9.51;63.13
25855;BME280;13680;49.936;11.344;2023-05-25T02:37:54;97280.47;;;9.53;63.40
25855;BME280;13680;49.936;11.344;2023-05-25T02:40:19;97282.38;;;9.47;63.28
25855;BME280;13680;49.936;11.344;2023-05-25T02:42:45;97282.06;;;9.54;62.90
25855;BME280;13680;49.936;11.344;2023-05-25T02:45:10;97282.34;;;9.53;63.35
25855;BME280;13680;49.936;11.344;2023-05-25T02:47:36;97280.81;;;9.41;62.58
25855;BME280;13680;49.936;11.344;2023-05-25T02:50:02;97270.94;;;9.31;63.06
25855;BME280;13680;49.936;11.344;2023-05-25T02:52:28;97269.63;;;9.29;63.53
25855;BME280;13680;49.936;11.344;2023-05-25T02:54:54;97278.47;;;9.29;63.98
25855;BME280;13680;49.936;11.344;2023-05-25T02:57:20;97274.72;;;9.30;63.39
25855;BME280;13680;49.936;11.344;2023-05-25T02:59:45;97273.06;;;9.34;64.05
25855;BME280;13680;49.936;11.344;2023-05-25T03:02:11;97286.47;;;9.34;63.19
25855;BME280;13680;49.936;11.344;2023-05-25T03:04:36;97292.44;;;9.31;64.15
25855;BME280;13680;49.936;11.344;2023-05-25T03:07:03;97284.09;;;9.33;64.02
25855;BME280;13680;49.936;11.344;2023-05-25T03:09:28;97293.44;;;9.41;63.59
25855;BME280;13680;49.936;11.344;2023-05-25T03:11:53;97285.03;;;9.53;62.89
25855;BME280;13680;49.936;11.344;2023-05-25T03:14:19;97295.88;;;9.37;63.99
25855;BME280;13680;49.936;11.344;2023-05-25T03:16:44;97287.19;;;9.50;63.78
25855;BME280;13680;49.936;11.344;2023-05-25T03:19:09;97293.72;;;9.39;63.51
25855;BME280;13680;49.936;11.344;2023-05-25T03:21:36;97295.22;;;9.56;62.96
25855;BME280;13680;49.936;11.344;2023-05-25T03:24:02;97302.03;;;9.43;63.72
25855;BME280;13680;49.936;11.344;2023-05-25T03:26:27;97292.34;;;9.42;63.79
25855;BME280;13680;49.936;11.344;2023-05-25T03:28:53;97292.53;;;9.56;63.21
25855;BME280;13680;49.936;11.344;2023-05-25T03:31:18;97302.44;;;9.55;63.82
25855;BME280;13680;49.936;11.344;2023-05-25T03:33:44;97300.59;;;9.56;63.98
25855;BME280;13680;49.936;11.344;2023-05-25T03:36:09;97297.44;;;9.43;63.84
25855;BME280;13680;49.936;11.344;2023-05-25T03:38:36;97295.78;;;9.47;63.75
25855;BME280;13680;49.936;11.344;2023-05-25T03:41:02;97306.22;;;9.54;64.22
25855;BME280;13680;49.936;11.344;2023-05-25T03:43:27;97312.53;;;9.34;64.52
25855;BME280;13680;49.936;11.344;2023-05-25T03:45:52;97311.84;;;9.58;63.64
25855;BME280;13680;49.936;11.344;2023-05-25T03:48:18;97316.63;;;9.66;63.64
25855;BME280;13680;49.936;11.344;2023-05-25T03:50:43;97317.41;;;9.66;63.70
25855;BME280;13680;49.936;11.344;2023-05-25T03:53:09;97323.56;;;9.72;63.26
25855;BME280;13680;49.936;11.344;2023-05-25T03:55:34;97321.97;;;9.71;63.77
25855;BME280;13680;49.936;11.344;2023-05-25T03:57:59;97330.31;;;9.70;63.49
25855;BME280;13680;49.936;11.344;2023-05-25T04:00:25;97324.81;;;9.85;63.13
25855;BME280;13680;49.936;11.344;2023-05-25T04:02:50;97323.03;;;9.70;63.29
25855;BME280;13680;49.936;11.344;2023-05-25T04:05:15;97325.59;;;9.86;63.51
25855;BME280;13680;49.936;11.344;2023-05-25T04:07:41;97325.78;;;9.99;62.75
25855;BME280;13680;49.936;11.344;2023-05-25T04:10:06;97332.75;;;10.01;62.72
25855;BME280;13680;49.936;11.344;2023-05-25T04:12:33;97329.88;;;9.92;63.04
25855;BME280;13680;49.936;11.344;2023-05-25T04:14:58;97337.41;;;10.19;62.80
25855;BME280;13680;49.936;11.344;2023-05-25T04:17:24;97340.78;;;10.35;62.23
25855;BME280;13680;49.936;11.344;2023-05-25T04:19:50;97342.28;;;10.17;63.01
25855;BME280;13680;49.936;11.344;2023-05-25T04:22:16;97346.31;;;10.20;62.49
25855;BME280;13680;49.936;11.344;2023-05-25T04:24:42;97345.63;;;10.33;62.39
25855;BME280;13680;49.936;11.344;2023-05-25T04:27:07;97353.03;;;10.17;63.20
25855;BME280;13680;49.936;11.344;2023-05-25T04:29:32;97359.88;;;10.39;62.40
25855;BME280;13680;49.936;11.344;2023-05-25T04:31:58;97358.13;;;10.53;62.36
25855;BME280;13680;49.936;11.344;2023-05-25T04:34:23;97358.94;;;10.78;61.78
25855;BME280;13680;49.936;11.344;2023-05-25T04:36:48;97363.53;;;11.02;60.80
25855;BME280;13680;49.936;11.344;2023-05-25T04:39:14;97369.31;;;11.14;61.06
25855;BME280;13680;49.936;11.344;2023-05-25T04:41:40;97366.09;;;11.12;60.39
25855;BME280;13680;49.936;11.344;2023-05-25T04:44:07;97369.59;;;11.37;59.58
25855;BME280;13680;49.936;11.344;2023-05-25T04:46:32;97364.31;;;11.45;59.42
25855;BME280;13680;49.936;11.344;2023-05-25T04:49:02;97376.22;;;11.63;59.18
25855;BME280;13680;49.936;11.344;2023-05-25T04:51:28;97371.69;;;11.78;58.68
25855;BME280;13680;49.936;11.344;2023-05-25T04:53:54;97365.22;;;11.79;58.89
25855;BME280;13680;49.936;11.344;2023-05-25T04:56:19;97367.03;;;11.65;58.85
25855;BME280;13680;49.936;11.344;2023-05-25T04:58:46;97373.53;;;11.83;58.27
25855;BME280;13680;49.936;11.344;2023-05-25T05:01:11;97369.81;;;11.98;57.55
25855;BME280;13680;49.936;11.344;2023-05-25T05:03:36;97372.25;;;11.94;58.00
25855;BME280;13680;49.936;11.344;2023-05-25T05:06:02;97363.94;;;11.95;57.70
25855;BME280;13680;49.936;11.344;2023-05-25T05:08:27;97366.81;;;11.99;57.60
25855;BME280;13680;49.936;11.344;2023-05-25T05:10:53;97371.25;;;12.09;57.89
25855;BME280;13680;49.936;11.344;2023-05-25T05:13:18;97368.91;;;12.21;57.48
25855;BME280;13680;49.936;11.344;2023-05-25T05:15:43;97370.75;;;12.40;57.24
25855;BME280;13680;49.936;11.344;2023-05-25T05:18:09;97370.59;;;12.50;56.42
25855;BME280;13680;49.936;11.344;2023-05-25T05:20:34;97375.31;;;12.72;55.70
25855;BME280;13680;49.936;11.344;2023-05-25T05:22:59;97387.66;;;12.92;55.60
25855;BME280;13680;49.936;11.344;2023-05-25T05:25:25;97385.69;;;12.65;56.06
25855;BME280;13680;49.936;11.344;2023-05-25T05:27:50;97385.91;;;12.69;56.26
25855;BME280;13680;49.936;11.344;2023-05-25T05:30:15;97391.94;;;12.33;57.48
25855;BME280;13680;49.936;11.344;2023-05-25T05:32:41;97386.41;;;12.57;57.66
25855;BME280;13680;49.936;11.344;2023-05-25T05:35:06;97379.00;;;12.63;57.05
25855;BME280;13680;49.936;11.344;2023-05-25T05:37:32;97399.34;;;12.41;57.58
25855;BME280;13680;49.936;11.344;2023-05-25T05:39:57;97396.88;;;12.25;57.66
25855;BME280;13680;49.936;11.344;2023-05-25T05:42:22;97403.50;;;12.33;58.08
25855;BME280;13680;49.936;11.344;2023-05-25T05:44:48;97389.88;;;12.57;57.50
25855;BME280;13680;49.936;11.344;2023-05-25T05:47:13;97393.16;;;12.40;58.69
25855;BME280;13680;49.936;11.344;2023-05-25T05:49:38;97393.63;;;12.42;58.55
25855;BME280;13680;49.936;11.344;2023-05-25T05:52:04;97395.59;;;12.56;58.12
25855;BME280;13680;49.936;11.344;2023-05-25T05:54:29;97394.72;;;12.74;58.07
25855;BME280;13680;49.936;11.344;2023-05-25T05:56:56;97395.63;;;12.84;58.62
25855;BME280;13680;49.936;11.344;2023-05-25T05:59:21;97392.53;;;12.90;58.26
25855;BME280;13680;49.936;11.344;2023-05-25T06:01:46;97398.03;;;12.99;59.40
25855;BME280;13680;49.936;11.344;2023-05-25T06:04:12;97401.03;;;12.84;59.54
25855;BME280;13680;49.936;11.344;2023-05-25T06:06:37;97401.22;;;13.15;58.75
25855;BME280;13680;49.936;11.344;2023-05-25T06:09:04;97410.47;;;13.28;57.98
25855;BME280;13680;49.936;11.344;2023-05-25T06:11:34;97397.25;;;13.26;58.39
25855;BME280;13680;49.936;11.344;2023-05-25T06:14:01;97393.25;;;13.24;58.25
25855;BME280;13680;49.936;11.344;2023-05-25T06:16:27;97391.16;;;13.35;57.97
25855;BME280;13680;49.936;11.344;2023-05-25T06:18:52;97395.06;;;13.56;58.03
25855;BME280;13680;49.936;11.344;2023-05-25T06:21:17;97387.41;;;13.72;57.12
25855;BME280;13680;49.936;11.344;2023-05-25T06:23:43;97392.13;;;13.67;57.79
25855;BME280;13680;49.936;11.344;2023-05-25T06:26:08;97394.84;;;14.03;56.56
25855;BME280;13680;49.936;11.344;2023-05-25T06:28:33;97397.19;;;13.82;57.19
25855;BME280;13680;49.936;11.344;2023-05-25T06:30:59;97392.75;;;14.23;56.20
25855;BME280;13680;49.936;11.344;2023-05-25T06:33:24;97389.78;;;14.33;55.94
25855;BME280;13680;49.936;11.344;2023-05-25T06:35:50;97387.50;;;14.49;55.83
25855;BME280;13680;49.936;11.344;2023-05-25T06:38:16;97381.81;;;14.82;54.56
25855;BME280;13680;49.936;11.344;2023-05-25T06:40:42;97380.00;;;14.69;54.42
25855;BME280;13680;49.936;11.344;2023-05-25T06:43:07;97386.06;;;14.66;55.30
25855;BME280;13680;49.936;11.344;2023-05-25T06:45:32;97386.56;;;15.08;54.29
25855;BME280;13680;49.936;11.344;2023-05-25T06:47:58;97377.41;;;15.44;53.94
25855;BME280;13680;49.936;11.344;2023-05-25T06:50:23;97376.78;;;15.38;52.58
25855;BME280;13680;49.936;11.344;2023-05-25T06:52:48;97370.88;;;15.45;52.31
25855;BME280;13680;49.936;11.344;2023-05-25T06:55:14;97369.47;;;15.57;51.97
25855;BME280;13680;49.936;11.344;2023-05-25T06:57:40;97381.59;;;15.10;52.45
25855;BME280;13680;49.936;11.344;2023-05-25T07:00:05;97386.03;;;15.64;50.61
25855;BME280;13680;49.936;11.344;2023-05-25T07:02:33;97376.00;;;15.55;51.31
25855;BME280;13680;49.936;11.344;2023-05-25T07:04:59;97377.47;;;16.06;50.60
25855;BME280;13680;49.936;11.344;2023-05-25T07:07:24;97378.75;;;15.99;49.46
25855;BME280;13680;49.936;11.344;2023-05-25T07:09:50;97386.09;;;15.90;49.42
25855;BME280;13680;49.936;11.344;2023-05-25T07:12:15;97377.00;;;16.21;49.29
25855;BME280;13680;49.936;11.344;2023-05-25T07:14:41;97368.22;;;15.98;49.54
25855;BME280;13680;49.936;11.344;2023-05-25T07:17:06;97368.84;;;16.12;48.86
25855;BME280;13680;49.936;11.344;2023-05-25T07:19:31;97368.97;;;16.51;48.00
25855;BME280;13680;49.936;11.344;2023-05-25T07:21:57;97366.72;;;16.53;48.14
25855;BME280;13680;49.936;11.344;2023-05-25T07:24:22;97370.13;;;16.97;47.34
25855;BME280;13680;49.936;11.344;2023-05-25T07:26:48;97368.75;;;17.21;46.03
25855;BME280;13680;49.936;11.344;2023-05-25T07:29:13;97379.06;;;17.37;47.00
25855;BME280;13680;49.936;11.344;2023-05-25T07:31:39;97379.41;;;17.56;46.38
25855;BME280;13680;49.936;11.344;2023-05-25T07:34:04;97387.72;;;17.30;46.08
25855;BME280;13680;49.936;11.344;2023-05-25T07:36:30;97384.50;;;17.58;45.75
25855;BME280;13680;49.936;11.344;2023-05-25T07:38:56;97386.97;;;18.02;44.19
25855;BME280;13680;49.936;11.344;2023-05-25T07:41:21;97389.97;;;17.28;46.17
25855;BME280;13680;49.936;11.344;2023-05-25T07:43:47;97384.16;;;17.38;45.35
25855;BME280;13680;49.936;11.344;2023-05-25T07:46:12;97386.53;;;17.40;44.35
25855;BME280;13680;49.936;11.344;2023-05-25T07:48:38;97389.66;;;17.80;43.97
25855;BME280;13680;49.936;11.344;2023-05-25T07:51:03;97386.09;;;17.89;43.37
25855;BME280;13680;49.936;11.344;2023-05-25T07:53:28;97388.81;;;17.89;44.89
25855;BME280;13680;49.936;11.344;2023-05-25T07:55:54;97385.28;;;18.64;42.91
25855;BME280;13680;49.936;11.344;2023-05-25T07:58:19;97398.63;;;18.57;42.41
25855;BME280;13680;49.936;11.344;2023-05-25T08:00:45;97382.78;;;18.71;42.31
25855;BME280;13680;49.936;11.344;2023-05-25T08:03:10;97387.88;;;19.06;42.70
25855;BME280;13680;49.936;11.344;2023-05-25T08:05:36;97381.63;;;19.18;41.51
25855;BME280;13680;49.936;11.344;2023-05-25T08:08:01;97389.09;;;18.96;42.93
25855;BME280;13680;49.936;11.344;2023-05-25T08:10:27;97377.75;;;19.19;40.69
25855;BME280;13680;49.936;11.344;2023-05-25T08:12:57;97377.19;;;19.26;41.23
25855;BME280;13680;49.936;11.344;2023-05-25T08:15:23;97377.84;;;19.35;41.30
25855;BME280;13680;49.936;11.344;2023-05-25T08:17:49;97381.53;;;20.05;40.19
25855;BME280;13680;49.936;11.344;2023-05-25T08:20:15;97380.66;;;20.17;40.51
25855;BME280;13680;49.936;11.344;2023-05-25T08:22:41;97380.09;;;19.83;39.80
25855;BME280;13680;49.936;11.344;2023-05-25T08:25:07;97384.38;;;19.96;40.46
25855;BME280;13680;49.936;11.344;2023-05-25T08:27:32;97387.31;;;18.67;40.32
25855;BME280;13680;49.936;11.344;2023-05-25T08:29:57;97387.19;;;19.22;40.66
25855;BME280;13680;49.936;11.344;2023-05-25T08:32:23;97386.72;;;19.20;40.40
25855;BME280;13680;49.936;11.344;2023-05-25T08:34:48;97372.88;;;19.37;40.46
25855;BME280;13680;49.936;11.344;2023-05-25T08:37:13;97367.47;;;19.78;39.35
25855;BME280;13680;49.936;11.344;2023-05-25T08:39:39;97373.78;;;19.04;39.88
25855;BME280;13680;49.936;11.344;2023-05-25T08:42:04;97378.84;;;19.68;41.15
25855;BME280;13680;49.936;11.344;2023-05-25T08:44:31;97381.66;;;19.96;40.09
25855;BME280;13680;49.936;11.344;2023-05-25T08:46:57;97379.53;;;19.65;39.67
25855;BME280;13680;49.936;11.344;2023-05-25T08:49:28;97373.16;;;20.42;38.25
25855;BME280;13680;49.936;11.344;2023-05-25T08:51:55;97386.22;;;20.77;37.46
25855;BME280;13680;49.936;11.344;2023-05-25T08:54:28;97374.69;;;21.16;36.70
25855;BME280;13680;49.936;11.344;2023-05-25T08:56:56;97378.47;;;20.95;36.84
25855;BME280;13680;49.936;11.344;2023-05-25T09:02:25;97387.38;;;20.48;37.82
25855;BME280;13680;49.936;11.344;2023-05-25T09:04:54;97384.03;;;20.83;37.64
25855;BME280;13680;49.936;11.344;2023-05-25T09:07:19;97383.47;;;21.25;36.01
25855;BME280;13680;49.936;11.344;2023-05-25T09:09:47;97383.56;;;21.61;35.97
25855;BME280;13680;49.936;11.344;2023-05-25T09:12:14;97386.66;;;22.34;34.54
25855;BME280;13680;49.936;11.344;2023-05-25T09:14:40;97381.34;;;21.66;34.26
25855;BME280;13680;49.936;11.344;2023-05-25T09:17:12;97380.84;;;21.29;36.39
25855;BME280;13680;49.936;11.344;2023-05-25T09:19:38;97380.59;;;21.53;35.25
25855;BME280;13680;49.936;11.344;2023-05-25T09:22:03;97392.31;;;21.86;35.26
25855;BME280;13680;49.936;11.344;2023-05-25T09:24:29;97390.19;;;21.44;34.84
25855;BME280;13680;49.936;11.344;2023-05-25T09:26:55;97385.22;;;21.49;34.91
25855;BME280;13680;49.936;11.344;2023-05-25T09:29:20;97383.81;;;21.91;34.70
25855;BME280;13680;49.936;11.344;2023-05-25T09:31:46;97383.47;;;22.12;35.01
25855;BME280;13680;49.936;11.344;2023-05-25T09:34:12;97378.97;;;22.23;36.28
25855;BME280;13680;49.936;11.344;2023-05-25T09:36:38;97390.16;;;22.34;34.81
25855;BME280;13680;49.936;11.344;2023-05-25T09:39:08;97388.81;;;22.05;36.11
25855;BME280;13680;49.936;11.344;2023-05-25T09:41:34;97388.22;;;22.15;35.45
25855;BME280;13680;49.936;11.344;2023-05-25T09:44:00;97382.38;;;22.17;35.32
25855;BME280;13680;49.936;11.344;2023-05-25T09:46:26;97384.25;;;22.32;34.80
25855;BME280;13680;49.936;11.344;2023-05-25T09:48:52;97385.97;;;22.60;34.54
25855;BME280;13680;49.936;11.344;2023-05-25T09:51:17;97370.59;;;22.75;34.10
25855;BME280;13680;49.936;11.344;2023-05-25T09:53:43;97383.31;;;22.64;34.88
25855;BME280;13680;49.936;11.344;2023-05-25T09:56:11;97378.56;;;22.41;35.21
25855;BME280;13680;49.936;11.344;2023-05-25T09:58:37;97385.06;;;22.76;35.30
25855;BME280;13680;49.936;11.344;2023-05-25T10:01:02;97375.50;;;23.12;34.84
25855;BME280;13680;49.936;11.344;2023-05-25T10:03:29;97381.53;;;22.52;34.58
25855;BME280;13680;49.936;11.344;2023-05-25T10:05:55;97367.72;;;23.14;34.74
25855;BME280;13680;49.936;11.344;2023-05-25T10:08:21;97369.06;;;22.78;34.07
25855;BME280;13680;49.936;11.344;2023-05-25T10:10:48;97371.94;;;23.58;35.29
25855;BME280;13680;49.936;11.344;2023-05-25T10:13:20;97372.00;;;23.12;34.39
25855;BME280;13680;49.936;11.344;2023-05-25T10:15:47;97371.31;;;22.95;33.02
25855;BME280;13680;49.936;11.344;2023-05-25T10:18:23;97380.50;;;22.60;33.67
25855;BME280;13680;49.936;11.344;2023-05-25T10:20:58;97370.84;;;23.66;31.71
25855;BME280;13680;49.936;11.344;2023-05-25T10:23:31;97370.78;;;23.32;32.73
25855;BME280;13680;49.936;11.344;2023-05-25T10:26:02;97380.69;;;23.41;32.65
25855;BME280;13680;49.936;11.344;2023-05-25T10:28:30;97385.44;;;23.17;32.51
25855;BME280;13680;49.936;11.344;2023-05-25T10:31:00;97376.47;;;23.47;31.62
25855;BME280;13680;49.936;11.344;2023-05-25T10:33:26;97374.78;;;23.96;32.98
25855;BME280;13680;49.936;11.344;2023-05-25T10:35:53;97368.41;;;24.52;31.31
25855;BME280;13680;49.936;11.344;2023-05-25T10:38:20;97368.91;;;25.07;30.07
25855;BME280;13680;49.936;11.344;2023-05-25T10:40:48;97376.31;;;25.47;30.00
25855;BME280;13680;49.936;11.344;2023-05-25T10:43:19;97369.47;;;25.27;29.76
25855;BME280;13680;49.936;11.344;2023-05-25T10:45:46;97369.50;;;24.82;30.07
25855;BME280;13680;49.936;11.344;2023-05-25T10:48:12;97365.13;;;25.26;28.71
25855;BME280;13680;49.936;11.344;2023-05-25T10:50:38;97371.69;;;25.10;30.13
25855;BME280;13680;49.936;11.344;2023-05-25T10:53:13;97369.63;;;24.96;30.99
25855;BME280;13680;49.936;11.344;2023-05-25T10:58:12;97367.09;;;25.25;29.43
25855;BME280;13680;49.936;11.344;2023-05-25T11:00:39;97363.66;;;24.87;31.21
25855;BME280;13680;49.936;11.344;2023-05-25T11:03:05;97371.19;;;24.97;30.76
25855;BME280;13680;49.936;11.344;2023-05-25T11:05:35;97362.38;;;25.22;30.30
25855;BME280;13680;49.936;11.344;2023-05-25T11:08:07;97371.25;;;25.53;30.02
25855;BME280;13680;49.936;11.344;2023-05-25T11:13:31;97365.63;;;26.02;28.73
25855;BME280;13680;49.936;11.344;2023-05-25T11:18:42;97370.97;;;25.73;29.90
25855;BME280;13680;49.936;11.344;2023-05-25T11:26:21;97365.97;;;25.30;30.55
25855;BME280;13680;49.936;11.344;2023-05-25T11:28:47;97358.25;;;26.27;28.17
25855;BME280;13680;49.936;11.344;2023-05-25T11:31:12;97356.75;;;26.59;28.02
25855;BME280;13680;49.936;11.344;2023-05-25T11:33:39;97353.53;;;26.32;28.08
25855;BME280;13680;49.936;11.344;2023-05-25T11:36:06;97341.91;;;25.83;29.13
25855;BME280;13680;49.936;11.344;2023-05-25T11:38:32;97338.50;;;26.07;28.57
25855;BME280;13680;49.936;11.344;2023-05-25T11:40:57;97353.97;;;26.41;29.20
25855;BME280;13680;49.936;11.344;2023-05-25T11:43:24;97352.78;;;26.42;29.25
25855;BME280;13680;49.936;11.344;2023-05-25T11:45:56;97353.28;;;26.94;27.92
25855;BME280;13680;49.936;11.344;2023-05-25T11:48:21;97340.63;;;26.72;27.50
25855;BME280;13680;49.936;11.344;2023-05-25T11:50:47;97343.41;;;26.90;28.89
25855;BME280;13680;49.936;11.344;2023-05-25T11:53:12;97333.47;;;27.72;26.53
25855;BME280;13680;49.936;11.344;2023-05-25T11:55:39;97341.03;;;27.17;27.68
25855;BME280;13680;49.936;11.344;2023-05-25T11:58:06;97331.13;;;27.67;27.79
25855;BME280;13680;49.936;11.344;2023-05-25T12:00:32;97330.31;;;27.73;27.17
25855;BME280;13680;49.936;11.344;2023-05-25T12:02:57;97338.31;;;27.10;27.06
25855;BME280;13680;49.936;11.344;2023-05-25T12:05:22;97340.66;;;27.19;26.64
25855;BME280;13680;49.936;11.344;2023-05-25T12:07:48;97335.81;;;26.33;28.14
25855;BME280;13680;49.936;11.344;2023-05-25T12:10:15;97327.47;;;26.07;28.91
25855;BME280;13680;49.936;11.344;2023-05-25T12:12:48;97321.31;;;27.26;28.21
25855;BME280;13680;49.936;11.344;2023-05-25T12:15:16;97325.44;;;28.17;26.26
25855;BME280;13680;49.936;11.344;2023-05-25T12:17:43;97327.22;;;27.24;27.41
25855;BME280;13680;49.936;11.344;2023-05-25T12:20:10;97327.22;;;27.24;27.09
25855;BME280;13680;49.936;11.344;2023-05-25T12:22:38;97324.84;;;27.34;27.10
25855;BME280;13680;49.936;11.344;2023-05-25T12:25:07;97319.59;;;28.68;28.13
25855;BME280;13680;49.936;11.344;2023-05-25T12:27:34;97322.69;;;28.14;26.04
25855;BME280;13680;49.936;11.344;2023-05-25T12:29:59;97316.06;;;27.86;26.63
25855;BME280;13680;49.936;11.344;2023-05-25T12:32:25;97328.03;;;26.92;27.36
25855;BME280;13680;49.936;11.344;2023-05-25T12:34:50;97321.72;;;27.03;27.45
25855;BME280;13680;49.936;11.344;2023-05-25T12:37:17;97310.13;;;27.87;25.79
25855;BME280;13680;49.936;11.344;2023-05-25T12:39:44;97308.59;;;28.57;26.28
25855;BME280;13680;49.936;11.344;2023-05-25T12:42:14;97307.28;;;28.13;27.06
25855;BME280;13680;49.936;11.344;2023-05-25T12:44:40;97307.88;;;28.42;26.33
25855;BME280;13680;49.936;11.344;2023-05-25T12:47:14;97306.44;;;28.83;26.61
25855;BME280;13680;49.936;11.344;2023-05-25T12:49:41;97301.72;;;29.29;25.66
25855;BME280;13680;49.936;11.344;2023-05-25T12:52:07;97298.63;;;29.19;25.21
25855;BME280;13680;49.936;11.344;2023-05-25T12:54:43;97313.34;;;27.71;27.31
25855;BME280;13680;49.936;11.344;2023-05-25T12:57:18;97312.25;;;27.11;28.02
25855;BME280;13680;49.936;11.344;2023-05-25T12:59:45;97320.06;;;27.59;28.09
25855;BME280;13680;49.936;11.344;2023-05-25T13:02:12;97309.25;;;28.76;27.25
25855;BME280;13680;49.936;11.344;2023-05-25T13:04:38;97308.75;;;28.92;26.71
25855;BME280;13680;49.936;11.344;2023-05-25T13:07:07;97302.00;;;29.38;26.16
25855;BME280;13680;49.936;11.344;2023-05-25T13:09:33;97307.72;;;28.74;26.71